Time;durP1;ratioP1;P1;durP2;ratioP2;P2;SDS_P1;SDS_P2;PMS_P1;PMS_P2;Temp;Humidity;BMP_temperature;BMP_pressure;BME280_temperature;BME280_humidity;BME280_pressure;Samples;Min_cycle;Max_cycle;Signal;HPM_P1;HPM_P2
2023/01/09 00:00:21;;;;;;;34.90;22.75;;;;;;;;;;6220768;23;20039;-92
2023/01/09 00:06:08;;;;;;;32.85;18.50;;;;;;;;;;6220958;23;20287;-90
2023/01/09 00:08:34;;;;;;;32.40;18.50;;;;;;;;;;6220903;23;20471;-91
2023/01/09 00:11:01;;;;;;;32.58;19.13;;;;;;;;;;6221057;23;20268;-91
2023/01/09 00:13:27;;;;;;;30.13;18.30;;;;;;;;;;6194517;23;20013;-90
2023/01/09 00:15:53;;;;;;;28.88;18.23;;;;;;;;;;6220666;23;20032;-91
2023/01/09 00:18:19;;;;;;;32.70;19.13;;;;;;;;;;6220860;23;20001;-91
2023/01/09 00:20:45;;;;;;;28.70;18.85;;;;;;;;;;6194619;23;20013;-92
2023/01/09 00:23:11;;;;;;;33.55;19.52;;;;;;;;;;6194416;23;20008;-91
2023/01/09 00:25:37;;;;;;;29.40;19.13;;;;;;;;;;6194610;23;20008;-91
2023/01/09 00:28:03;;;;;;;31.77;19.05;;;;;;;;;;6194488;23;20086;-91
2023/01/09 00:30:30;;;;;;;32.85;18.15;;;;;;;;;;6194402;23;20012;-91
2023/01/09 00:33:14;;;;;;;32.58;17.77;;;;;;;;;;6221551;23;20387;-92
2023/01/09 00:35:40;;;;;;;26.77;16.00;;;;;;;;;;6196318;23;20013;-91
2023/01/09 00:38:06;;;;;;;25.88;16.38;;;;;;;;;;6223123;23;20050;-92
2023/01/09 00:40:32;;;;;;;25.58;15.98;;;;;;;;;;6222233;22;20020;-92
2023/01/09 00:42:58;;;;;;;24.17;15.85;;;;;;;;;;6222636;23;20068;-90
2023/01/09 00:45:27;;;;;;;23.52;15.05;;;;;;;;;;6222679;23;20009;-91
2023/01/09 00:50:58;;;;;;;36.42;22.98;;;;;;;;;;6222354;23;20054;-90
2023/01/09 00:53:26;;;;;;;39.22;25.70;;;;;;;;;;6196043;23;20264;-92
2023/01/09 00:55:52;;;;;;;33.17;22.05;;;;;;;;;;6222734;23;20001;-91
2023/01/09 00:58:18;;;;;;;30.88;20.35;;;;;;;;;;6196858;23;20066;-90
2023/01/09 01:00:44;;;;;;;26.63;17.98;;;;;;;;;;6222027;23;20334;-91
2023/01/09 01:09:18;;;;;;;25.85;15.95;;;;;;;;;;6222249;23;20051;-92
2023/01/09 01:11:44;;;;;;;28.75;16.35;;;;;;;;;;6222709;23;20001;-92
2023/01/09 01:14:10;;;;;;;25.38;15.55;;;;;;;;;;6222662;23;20000;-90
2023/01/09 01:16:36;;;;;;;25.65;16.05;;;;;;;;;;6222583;23;20001;-93
2023/01/09 01:19:22;;;;;;;27.98;15.77;;;;;;;;;;6222470;23;20020;-91
2023/01/09 01:21:48;;;;;;;25.85;16.05;;;;;;;;;;6221865;23;20004;-92
2023/01/09 01:24:18;;;;;;;24.63;15.23;;;;;;;;;;6222513;23;20000;-92
2023/01/09 01:26:44;;;;;;;23.92;14.90;;;;;;;;;;6195883;23;20050;-90
2023/01/09 01:29:10;;;;;;;28.33;15.00;;;;;;;;;;6222261;23;20024;-92
2023/01/09 01:31:36;;;;;;;24.38;15.10;;;;;;;;;;6222253;23;20043;-91
2023/01/09 01:34:21;;;;;;;25.02;15.77;;;;;;;;;;6222267;23;20005;-90
2023/01/09 01:36:47;;;;;;;23.67;15.88;;;;;;;;;;6222220;23;20001;-89
2023/01/09 01:39:13;;;;;;;24.27;14.90;;;;;;;;;;6195928;23;20012;-91
2023/01/09 01:41:39;;;;;;;26.88;15.38;;;;;;;;;;6221895;23;20271;-91
2023/01/09 01:44:25;;;;;;;27.83;16.40;;;;;;;;;;6221807;23;20008;-91
2023/01/09 01:46:53;;;;;;;26.52;15.50;;;;;;;;;;6195715;23;20051;-90
2023/01/09 01:52:43;;;;;;;24.75;15.20;;;;;;;;;;6222159;23;20003;-91
2023/01/09 01:55:09;;;;;;;26.67;16.55;;;;;;;;;;6195661;23;19997;-91
2023/01/09 01:57:37;;;;;;;27.08;16.25;;;;;;;;;;6222329;23;20000;-92
2023/01/09 02:00:04;;;;;;;27.77;16.38;;;;;;;;;;6222054;23;20001;-93
2023/01/09 02:05:52;;;;;;;30.70;16.83;;;;;;;;;;6221837;23;20260;-93
2023/01/09 02:08:19;;;;;;;28.88;17.08;;;;;;;;;;6195299;23;19997;-92
2023/01/09 02:10:45;;;;;;;28.45;16.08;;;;;;;;;;6195535;23;20387;-92
2023/01/09 02:13:12;;;;;;;25.83;15.60;;;;;;;;;;6221766;23;20259;-92
2023/01/09 02:15:53;;;;;;;27.35;16.35;;;;;;;;;;6195627;23;20008;-92
2023/01/09 02:18:27;;;;;;;28.63;17.17;;;;;;;;;;6195421;23;20013;-92
2023/01/09 02:20:56;;;;;;;29.38;15.93;;;;;;;;;;6221831;23;20008;-90
2023/01/09 02:23:22;;;;;;;28.40;16.60;;;;;;;;;;6221636;23;19997;-90
2023/01/09 02:26:17;;;;;;;27.83;16.65;;;;;;;;;;6221745;23;20047;-91
2023/01/09 02:28:53;;;;;;;27.77;17.13;;;;;;;;;;6195149;23;19997;-91
2023/01/09 02:31:24;;;;;;;28.77;17.40;;;;;;;;;;6195201;23;20394;-91
2023/01/09 02:37:12;;;;;;;30.00;16.65;;;;;;;;;;6221450;23;20059;-91
2023/01/09 02:39:38;;;;;;;31.77;17.20;;;;;;;;;;6221144;22;20364;-90
2023/01/09 02:42:04;;;;;;;27.20;17.38;;;;;;;;;;6221378;23;20421;-91
2023/01/09 02:44:32;;;;;;;30.75;16.75;;;;;;;;;;6195263;23;20058;-91
2023/01/09 02:46:59;;;;;;;30.08;17.52;;;;;;;;;;6221610;23;20005;-90
2023/01/09 02:49:26;;;;;;;30.05;16.98;;;;;;;;;;6221065;23;20375;-92
2023/01/09 02:51:54;;;;;;;29.98;16.67;;;;;;;;;;6221591;23;20005;-90
2023/01/09 02:54:31;;;;;;;26.38;17.17;;;;;;;;;;6221323;23;20051;-90
2023/01/09 02:57:00;;;;;;;28.38;17.73;;;;;;;;;;6221587;23;20012;-92
2023/01/09 02:59:52;;;;;;;27.38;16.45;;;;;;;;;;6194872;23;20502;-90
2023/01/09 03:02:18;;;;;;;29.00;17.93;;;;;;;;;;6194992;23;20001;-90
2023/01/09 03:10:58;;;;;;;27.08;17.35;;;;;;;;;;6221298;23;20062;-90
2023/01/09 03:13:24;;;;;;;30.17;18.30;;;;;;;;;;6221199;23;19997;-91
2023/01/09 03:15:52;;;;;;;31.23;18.15;;;;;;;;;;6221479;23;20000;-89
2023/01/09 03:18:20;;;;;;;31.65;17.92;;;;;;;;;;6194850;23;20260;-91
2023/01/09 03:20:47;;;;;;;34.65;19.02;;;;;;;;;;6221053;23;20037;-89
2023/01/09 03:23:13;;;;;;;29.30;18.05;;;;;;;;;;6194552;23;20263;-91
2023/01/09 03:25:39;;;;;;;30.02;18.67;;;;;;;;;;6221365;23;20291;-89
2023/01/09 03:28:06;;;;;;;28.27;17.80;;;;;;;;;;6220872;23;20000;-90
2023/01/09 03:30:34;;;;;;;31.40;18.23;;;;;;;;;;6221102;23;20005;-90
2023/01/09 03:33:00;;;;;;;30.30;18.60;;;;;;;;;;6221394;23;20266;-89
2023/01/09 03:35:26;;;;;;;29.35;17.67;;;;;;;;;;6221349;23;20005;-91
2023/01/09 03:37:52;;;;;;;27.25;17.70;;;;;;;;;;6194762;23;20047;-91
2023/01/09 03:40:19;;;;;;;31.25;18.73;;;;;;;;;;6220454;22;20012;-89
2023/01/09 03:42:45;;;;;;;33.65;19.27;;;;;;;;;;6221250;23;20004;-91
2023/01/09 03:45:11;;;;;;;30.60;18.42;;;;;;;;;;6220816;23;20363;-90
2023/01/09 03:47:37;;;;;;;32.33;19.48;;;;;;;;;;6221107;23;20115;-89
2023/01/09 03:50:04;;;;;;;34.40;19.25;;;;;;;;;;6194638;23;20131;-91
2023/01/09 03:52:30;;;;;;;29.90;18.65;;;;;;;;;;6194556;23;20019;-91
2023/01/09 03:54:56;;;;;;;30.52;19.48;;;;;;;;;;6220908;23;20045;-89
2023/01/09 03:57:23;;;;;;;31.45;18.45;;;;;;;;;;6194493;23;20001;-90
2023/01/09 03:59:49;;;;;;;33.33;19.30;;;;;;;;;;6221099;23;20079;-89
2023/01/09 04:02:15;;;;;;;31.92;19.55;;;;;;;;;;6194557;23;20050;-91
2023/01/09 04:08:03;;;;;;;32.08;20.33;;;;;;;;;;6222157;23;20046;-91
2023/01/09 04:10:29;;;;;;;33.50;20.27;;;;;;;;;;6222660;23;20009;-91
2023/01/09 04:12:55;;;;;;;32.33;19.77;;;;;;;;;;6222456;23;20132;-90
2023/01/09 04:15:22;;;;;;;37.03;20.73;;;;;;;;;;6196467;23;20051;-91
2023/01/09 04:17:48;;;;;;;37.53;21.17;;;;;;;;;;6196424;23;20015;-91
2023/01/09 04:20:33;;;;;;;36.33;21.10;;;;;;;;;;6222875;23;20000;-90
2023/01/09 04:22:59;;;;;;;37.78;21.42;;;;;;;;;;6222444;23;20012;-91
2023/01/09 04:25:26;;;;;;;39.70;22.55;;;;;;;;;;6222612;23;20004;-90
2023/01/09 04:27:52;;;;;;;38.60;21.45;;;;;;;;;;6222697;23;20000;-89
2023/01/09 04:30:18;;;;;;;33.05;21.27;;;;;;;;;;6196403;23;20039;-90
2023/01/09 04:32:44;;;;;;;35.58;20.90;;;;;;;;;;6222750;23;20072;-89
2023/01/09 04:35:10;;;;;;;38.15;21.67;;;;;;;;;;6222631;23;20020;-91
2023/01/09 04:37:36;;;;;;;38.67;21.50;;;;;;;;;;6196373;23;20091;-89
2023/01/09 04:40:07;;;;;;;41.13;22.45;;;;;;;;;;6207041;23;20016;-90
2023/01/09 04:42:33;;;;;;;33.88;19.80;;;;;;;;;;6252528;23;20011;-88
2023/01/09 04:44:59;;;;;;;35.72;18.70;;;;;;;;;;6253012;23;20026;-86
2023/01/09 04:47:25;;;;;;;36.30;20.65;;;;;;;;;;6252995;23;19997;-87
2023/01/09 04:49:51;;;;;;;38.78;21.85;;;;;;;;;;6253255;22;20064;-89
2023/01/09 04:52:17;;;;;;;33.95;20.13;;;;;;;;;;6226445;23;20008;-88
2023/01/09 04:54:44;;;;;;;44.55;24.30;;;;;;;;;;6226664;23;20012;-88
2023/01/09 04:57:10;;;;;;;44.97;23.27;;;;;;;;;;6226373;23;20016;-88
2023/01/09 04:59:36;;;;;;;43.28;23.02;;;;;;;;;;6226188;23;20004;-88
2023/01/09 05:02:02;;;;;;;37.85;20.75;;;;;;;;;;6253115;23;19996;-89
2023/01/09 05:04:28;;;;;;;38.05;21.58;;;;;;;;;;6252924;22;19996;-89
2023/01/09 05:06:54;;;;;;;37.85;22.25;;;;;;;;;;6253033;23;20010;-88
2023/01/09 05:09:21;;;;;;;33.80;19.10;;;;;;;;;;6252438;23;20004;-89
2023/01/09 05:11:47;;;;;;;28.92;18.02;;;;;;;;;;6252839;23;20011;-88
2023/01/09 05:14:13;;;;;;;32.70;21.02;;;;;;;;;;6226108;23;20000;-88
2023/01/09 05:16:39;;;;;;;28.67;18.33;;;;;;;;;;6252854;23;19996;-89
2023/01/09 05:19:44;;;;;;;28.58;18.40;;;;;;;;;;6226023;23;20004;-89
2023/01/09 05:22:11;;;;;;;34.05;18.40;;;;;;;;;;6252384;23;20032;-89
2023/01/09 05:24:37;;;;;;;30.48;17.77;;;;;;;;;;6252692;23;20004;-89
2023/01/09 05:27:03;;;;;;;29.38;17.10;;;;;;;;;;6252559;23;20362;-88
2023/01/09 05:29:29;;;;;;;28.40;17.48;;;;;;;;;;6252803;23;20035;-89
2023/01/09 05:31:55;;;;;;;31.65;18.40;;;;;;;;;;6252596;23;20004;-88
2023/01/09 05:34:21;;;;;;;30.25;18.13;;;;;;;;;;6252318;22;20408;-88
2023/01/09 05:36:47;;;;;;;32.85;18.80;;;;;;;;;;6225998;23;20418;-89
2023/01/09 05:39:14;;;;;;;32.22;18.55;;;;;;;;;;6224819;22;20267;-89
2023/01/09 05:41:40;;;;;;;33.28;19.52;;;;;;;;;;6222440;23;20046;-90
2023/01/09 05:44:06;;;;;;;33.45;19.92;;;;;;;;;;6222112;23;20008;-89
2023/01/09 05:46:32;;;;;;;33.92;20.05;;;;;;;;;;6195964;23;20007;-89
2023/01/09 05:52:02;;;;;;;31.02;19.65;;;;;;;;;;6221706;23;20011;-90
2023/01/09 05:54:28;;;;;;;31.65;20.20;;;;;;;;;;6195809;23;20008;-88
2023/01/09 05:56:54;;;;;;;33.92;19.85;;;;;;;;;;6222154;23;20020;-89
2023/01/09 05:59:20;;;;;;;36.33;20.80;;;;;;;;;;6221709;23;20008;-89
2023/01/09 06:01:46;;;;;;;36.13;20.55;;;;;;;;;;6221798;23;20001;-88
2023/01/09 06:04:30;;;;;;;36.25;20.15;;;;;;;;;;6195696;23;20043;-90
2023/01/09 06:06:57;;;;;;;30.30;18.65;;;;;;;;;;6195642;23;20005;-89
2023/01/09 06:09:23;;;;;;;70.45;25.95;;;;;;;;;;6221700;23;19996;-88
2023/01/09 06:11:49;;;;;;;56.58;23.33;;;;;;;;;;6222138;23;20259;-88
2023/01/09 06:14:15;;;;;;;84.13;30.98;;;;;;;;;;6195555;23;20004;-88
2023/01/09 06:16:41;;;;;;;57.35;26.10;;;;;;;;;;6221431;23;20083;-89
2023/01/09 06:22:10;;;;;;;50.17;23.50;;;;;;;;;;6221534;23;20047;-90
2023/01/09 06:24:36;;;;;;;35.47;20.27;;;;;;;;;;6221787;23;20079;-89
2023/01/09 06:27:03;;;;;;;35.05;20.88;;;;;;;;;;6222105;23;20000;-89
2023/01/09 06:29:29;;;;;;;31.80;19.75;;;;;;;;;;6194425;23;20008;-89
2023/01/09 06:31:55;;;;;;;32.90;19.05;;;;;;;;;;6195337;23;20009;-89
2023/01/09 06:34:21;;;;;;;30.48;18.70;;;;;;;;;;6221814;23;20005;-90
2023/01/09 06:36:47;;;;;;;33.75;19.17;;;;;;;;;;6221933;23;20051;-91
2023/01/09 06:39:13;;;;;;;34.78;19.25;;;;;;;;;;6194896;23;20063;-89
2023/01/09 06:41:39;;;;;;;33.25;20.05;;;;;;;;;;6195424;23;20364;-89
2023/01/09 06:44:05;;;;;;;30.92;18.95;;;;;;;;;;6221821;23;20019;-91
2023/01/09 06:46:31;;;;;;;35.35;19.95;;;;;;;;;;6221810;23;20008;-89
2023/01/09 06:48:57;;;;;;;30.80;18.20;;;;;;;;;;6221656;23;20047;-90
2023/01/09 06:51:23;;;;;;;31.92;19.00;;;;;;;;;;6195131;23;20004;-89
2023/01/09 06:53:49;;;;;;;30.10;17.63;;;;;;;;;;6195049;23;20091;-90
2023/01/09 06:56:15;;;;;;;30.02;18.45;;;;;;;;;;6195124;23;20352;-90
2023/01/09 06:58:41;;;;;;;31.35;17.73;;;;;;;;;;6221042;23;20055;-91
2023/01/09 07:01:08;;;;;;;30.67;18.70;;;;;;;;;;6221263;23;20009;-90
2023/01/09 07:03:34;;;;;;;36.80;20.80;;;;;;;;;;6221185;23;20383;-90
2023/01/09 07:06:00;;;;;;;31.95;18.10;;;;;;;;;;6195252;23;20000;-91
2023/01/09 07:08:26;;;;;;;30.55;18.75;;;;;;;;;;6221100;23;20047;-90
2023/01/09 07:10:52;;;;;;;32.05;18.15;;;;;;;;;;6221663;23;20009;-91
2023/01/09 07:13:18;;;;;;;32.45;18.10;;;;;;;;;;6195036;23;20005;-89
2023/01/09 07:15:44;;;;;;;31.27;18.20;;;;;;;;;;6194906;23;20009;-91
2023/01/09 07:18:10;;;;;;;30.27;18.75;;;;;;;;;;6221212;23;20008;-90
2023/01/09 07:20:54;;;;;;;30.25;17.52;;;;;;;;;;6194744;23;20005;-92
2023/01/09 07:23:21;;;;;;;29.08;16.80;;;;;;;;;;6221466;23;20072;-90
2023/01/09 07:25:47;;;;;;;30.30;17.65;;;;;;;;;;6221593;23;20019;-89
2023/01/09 07:28:13;;;;;;;30.33;18.50;;;;;;;;;;6194984;23;20004;-90
2023/01/09 07:30:39;;;;;;;29.42;18.20;;;;;;;;;;6221368;23;20118;-90
2023/01/09 07:33:05;;;;;;;31.65;19.02;;;;;;;;;;6221063;23;20005;-92
2023/01/09 07:35:31;;;;;;;29.90;17.27;;;;;;;;;;6220882;23;20004;-89
2023/01/09 07:37:57;;;;;;;33.85;19.80;;;;;;;;;;6221402;23;20309;-90
2023/01/09 07:40:23;;;;;;;27.85;17.48;;;;;;;;;;6204634;23;20047;-91
2023/01/09 07:42:52;;;;;;;32.55;18.73;;;;;;;;;;6222833;23;20011;-89
2023/01/09 07:45:18;;;;;;;27.65;16.15;;;;;;;;;;6223620;23;20079;-89
2023/01/09 07:47:44;;;;;;;31.63;19.02;;;;;;;;;;6223130;23;20455;-91
2023/01/09 07:53:14;;;;;;;33.05;18.75;;;;;;;;;;6223041;23;20012;-89
2023/01/09 07:55:41;;;;;;;29.65;18.38;;;;;;;;;;6223274;23;20088;-89
2023/01/09 07:58:08;;;;;;;30.20;17.30;;;;;;;;;;6221857;23;20268;-89
2023/01/09 08:00:34;;;;;;;29.38;17.45;;;;;;;;;;6221803;23;20095;-90
2023/01/09 08:03:00;;;;;;;34.15;18.48;;;;;;;;;;6223355;23;20000;-89
2023/01/09 08:05:26;;;;;;;35.72;18.27;;;;;;;;;;6222947;23;20391;-89
2023/01/09 08:07:52;;;;;;;34.63;19.05;;;;;;;;;;6222954;23;20004;-89
2023/01/09 08:10:18;;;;;;;32.38;19.42;;;;;;;;;;6221647;23;20027;-89
2023/01/09 08:12:45;;;;;;;38.63;21.10;;;;;;;;;;6221689;23;20008;-90
2023/01/09 08:15:11;;;;;;;33.33;19.08;;;;;;;;;;6222996;23;20076;-89
2023/01/09 08:17:37;;;;;;;33.17;19.67;;;;;;;;;;6222859;23;20020;-89
2023/01/09 08:20:03;;;;;;;30.30;19.10;;;;;;;;;;6221499;23;20005;-89
2023/01/09 08:22:29;;;;;;;34.40;19.17;;;;;;;;;;6223286;23;19997;-90
2023/01/09 08:24:55;;;;;;;38.22;21.92;;;;;;;;;;6221749;23;20083;-91
2023/01/09 08:27:21;;;;;;;36.42;20.42;;;;;;;;;;6223180;23;20004;-89
2023/01/09 08:29:47;;;;;;;33.00;19.65;;;;;;;;;;6221683;23;20016;-88
2023/01/09 08:32:13;;;;;;;31.08;20.65;;;;;;;;;;6223026;23;20028;-88
2023/01/09 08:34:39;;;;;;;28.92;18.35;;;;;;;;;;6222873;23;20047;-89
2023/01/09 08:37:05;;;;;;;33.38;19.73;;;;;;;;;;6221544;23;20395;-89
2023/01/09 08:39:32;;;;;;;30.90;19.45;;;;;;;;;;6221248;22;20059;-89
2023/01/09 08:47:32;;;;;;;47.15;22.95;;;;;;;;;;6222731;23;20027;-89
2023/01/09 08:49:58;;;;;;;43.95;22.05;;;;;;;;;;6222473;23;20000;-89
2023/01/09 08:52:24;;;;;;;33.22;20.08;;;;;;;;;;6222431;23;20011;-90
2023/01/09 08:54:50;;;;;;;31.58;18.67;;;;;;;;;;6222647;23;20008;-88
2023/01/09 08:57:16;;;;;;;32.03;18.75;;;;;;;;;;6222734;23;20348;-90
2023/01/09 08:59:42;;;;;;;31.05;19.00;;;;;;;;;;6196056;23;20382;-90
2023/01/09 09:02:08;;;;;;;31.55;19.40;;;;;;;;;;6196543;23;20083;-90
2023/01/09 09:04:34;;;;;;;32.58;21.13;;;;;;;;;;6222686;23;20000;-90
2023/01/09 09:07:01;;;;;;;39.60;24.27;;;;;;;;;;6196120;23;20011;-89
2023/01/09 09:09:27;;;;;;;36.00;21.17;;;;;;;;;;6196215;23;20035;-89
2023/01/09 09:11:53;;;;;;;35.05;22.02;;;;;;;;;;6196289;23;20091;-89
2023/01/09 09:17:03;;;;;;;40.67;23.35;;;;;;;;;;6222407;23;20051;-89
2023/01/09 09:22:33;;;;;;;39.45;21.55;;;;;;;;;;6222227;23;20047;-89
2023/01/09 09:24:59;;;;;;;40.15;24.75;;;;;;;;;;6222615;23;20016;-88
2023/01/09 09:27:26;;;;;;;41.92;25.02;;;;;;;;;;6222494;23;20008;-90
2023/01/09 09:29:52;;;;;;;45.90;25.88;;;;;;;;;;6196132;23;20008;-89
2023/01/09 09:32:18;;;;;;;41.75;23.58;;;;;;;;;;6195970;23;20027;-90
2023/01/09 09:34:44;;;;;;;41.05;23.77;;;;;;;;;;6195899;23;20009;-90
2023/01/09 09:37:10;;;;;;;41.17;23.05;;;;;;;;;;6195979;23;20008;-89
2023/01/09 09:39:36;;;;;;;41.88;24.80;;;;;;;;;;6221727;22;20066;-89
2023/01/09 09:45:01;;;;;;;38.72;23.77;;;;;;;;;;6222073;23;20083;-89
2023/01/09 09:47:30;;;;;;;36.60;24.20;;;;;;;;;;6195582;23;20031;-88
2023/01/09 09:49:59;;;;;;;40.92;24.05;;;;;;;;;;6222269;23;20001;-91
2023/01/09 09:52:35;;;;;;;35.42;23.35;;;;;;;;;;6222258;23;20408;-89
2023/01/09 09:55:05;;;;;;;38.25;22.05;;;;;;;;;;6221580;23;20363;-89
2023/01/09 09:57:36;;;;;;;40.70;23.63;;;;;;;;;;6222120;23;20023;-88
2023/01/09 10:00:04;;;;;;;37.55;22.27;;;;;;;;;;6222072;23;20047;-89
2023/01/09 10:02:42;;;;;;;36.60;22.90;;;;;;;;;;6222266;23;20004;-89
2023/01/09 10:05:19;;;;;;;40.85;25.08;;;;;;;;;;6221703;23;20005;-89
2023/01/09 10:07:49;;;;;;;83.28;32.25;;;;;;;;;;6195457;23;20363;-89
2023/01/09 10:10:24;;;;;;;163.25;49.78;;;;;;;;;;6195508;23;20016;-88
2023/01/09 10:12:55;;;;;;;137.68;52.33;;;;;;;;;;6222132;23;20056;-90
2023/01/09 10:15:31;;;;;;;57.38;33.35;;;;;;;;;;6195447;23;20005;-89
2023/01/09 10:18:06;;;;;;;52.55;30.15;;;;;;;;;;6221423;23;20001;-90
2023/01/09 10:23:45;;;;;;;40.10;24.02;;;;;;;;;;6221508;23;20379;-88
2023/01/09 10:26:21;;;;;;;52.65;29.48;;;;;;;;;;6195515;23;20021;-89
2023/01/09 10:29:23;;;;;;;42.17;25.38;;;;;;;;;;6221828;23;20001;-89
2023/01/09 10:31:49;;;;;;;48.75;27.98;;;;;;;;;;6100717;23;20073;-90
2023/01/09 10:37:28;;;;;;;51.80;28.27;;;;;;;;;;6100849;23;20045;-89
2023/01/09 10:39:59;;;;;;;44.60;24.95;;;;;;;;;;6109736;23;20046;-89
2023/01/09 10:42:29;;;;;;;45.92;25.08;;;;;;;;;;6130215;23;20021;-89
2023/01/09 10:45:14;;;;;;;47.40;27.80;;;;;;;;;;6130185;23;20146;-89
2023/01/09 10:47:42;;;;;;;43.70;24.33;;;;;;;;;;6130091;23;20009;-88
2023/01/09 10:50:34;;;;;;;43.55;26.60;;;;;;;;;;6130103;23;20006;-90
2023/01/09 10:53:01;;;;;;;38.45;23.67;;;;;;;;;;6127285;23;20085;-89
2023/01/09 10:55:37;;;;;;;37.05;22.38;;;;;;;;;;6130210;23;20002;-90
2023/01/09 10:58:10;;;;;;;35.47;22.02;;;;;;;;;;6129918;23;20008;-89
2023/01/09 11:00:37;;;;;;;36.95;21.42;;;;;;;;;;6105284;23;20088;-88
2023/01/09 11:03:03;;;;;;;35.30;21.90;;;;;;;;;;6130177;23;20010;-88
2023/01/09 11:05:29;;;;;;;36.63;21.90;;;;;;;;;;6177351;23;20089;-89
2023/01/09 11:08:10;;;;;;;42.55;24.45;;;;;;;;;;6200186;23;20016;-90
2023/01/09 11:10:56;;;;;;;45.92;26.90;;;;;;;;;;6225177;23;20012;-88
2023/01/09 11:13:24;;;;;;;44.33;25.92;;;;;;;;;;6224812;23;20039;-89
2023/01/09 11:16:01;;;;;;;46.05;27.00;;;;;;;;;;6251918;23;20008;-89
2023/01/09 11:18:27;;;;;;;43.83;25.23;;;;;;;;;;6251749;23;20004;-89
2023/01/09 11:21:30;;;;;;;39.30;23.25;;;;;;;;;;6251802;23;20004;-87
2023/01/09 11:24:16;;;;;;;29.92;19.40;;;;;;;;;;6251777;23;20010;-89
2023/01/09 11:26:42;;;;;;;33.88;21.42;;;;;;;;;;6251785;23;20248;-89
2023/01/09 11:29:13;;;;;;;31.45;19.52;;;;;;;;;;6252010;23;20048;-89
2023/01/09 11:31:40;;;;;;;29.35;18.52;;;;;;;;;;6225026;23;20015;-89
2023/01/09 11:34:13;;;;;;;31.90;20.13;;;;;;;;;;6251466;23;20020;-88
2023/01/09 11:43:09;;;;;;;40.97;23.83;;;;;;;;;;6221085;23;20403;-89
2023/01/09 11:45:35;;;;;;;32.72;19.83;;;;;;;;;;6221643;23;20009;-89
2023/01/09 11:48:03;;;;;;;33.08;20.52;;;;;;;;;;6221056;23;20039;-88
2023/01/09 11:50:49;;;;;;;33.10;19.80;;;;;;;;;;6194768;23;20035;-88
2023/01/09 11:53:16;;;;;;;34.38;19.88;;;;;;;;;;6220923;23;20068;-89
2023/01/09 11:55:43;;;;;;;36.72;22.40;;;;;;;;;;6194606;23;20051;-88
2023/01/09 11:58:17;;;;;;;35.08;20.08;;;;;;;;;;6194793;23;20001;-90
2023/01/09 12:00:53;;;;;;;33.17;20.73;;;;;;;;;;6195045;23;20035;-89
2023/01/09 12:03:37;;;;;;;37.78;22.05;;;;;;;;;;6194792;23;20001;-89
2023/01/09 12:06:27;;;;;;;36.13;21.52;;;;;;;;;;6221240;23;20083;-89
2023/01/09 12:08:58;;;;;;;38.33;23.33;;;;;;;;;;6100064;23;20014;-89
2023/01/09 12:11:28;;;;;;;37.60;23.60;;;;;;;;;;6076625;23;20014;-87
2023/01/09 12:14:00;;;;;;;37.33;23.13;;;;;;;;;;6076373;23;20002;-88
2023/01/09 12:16:40;;;;;;;37.35;21.33;;;;;;;;;;6076401;23;20374;-88
2023/01/09 12:22:22;;;;;;;27.70;17.83;;;;;;;;;;6100172;23;20416;-88
2023/01/09 12:24:52;;;;;;;25.85;17.38;;;;;;;;;;6076275;23;20010;-89
2023/01/09 12:27:18;;;;;;;28.63;18.40;;;;;;;;;;6100176;23;20017;-89
2023/01/09 12:30:00;;;;;;;26.75;16.58;;;;;;;;;;6102220;23;20007;-89
2023/01/09 12:32:48;;;;;;;31.80;19.43;;;;;;;;;;6102171;23;20074;-88
2023/01/09 12:35:26;;;;;;;30.05;20.42;;;;;;;;;;6101818;23;20013;-88
2023/01/09 12:38:01;;;;;;;35.20;23.02;;;;;;;;;;6102112;23;20010;-89
2023/01/09 12:40:45;;;;;;;39.33;25.63;;;;;;;;;;6101762;23;20045;-88
2023/01/09 12:43:11;;;;;;;38.95;24.20;;;;;;;;;;6102086;23;20053;-89
2023/01/09 12:45:50;;;;;;;35.10;21.67;;;;;;;;;;6126642;23;20001;-89
2023/01/09 12:48:34;;;;;;;29.02;20.30;;;;;;;;;;6222924;23;20001;-89
2023/01/09 12:51:33;;;;;;;33.22;21.00;;;;;;;;;;6196363;23;20008;-89
2023/01/09 12:54:05;;;;;;;33.53;20.42;;;;;;;;;;6077930;23;20014;-87
2023/01/09 12:56:47;;;;;;;29.40;18.75;;;;;;;;;;6101950;23;20390;-88
2023/01/09 12:59:29;;;;;;;32.38;18.55;;;;;;;;;;6102173;23;20010;-88
2023/01/09 13:02:01;;;;;;;27.77;18.15;;;;;;;;;;6102049;23;20006;-89
2023/01/09 13:04:30;;;;;;;29.23;18.30;;;;;;;;;;6101554;23;20038;-88
2023/01/09 13:10:01;;;;;;;28.55;16.95;;;;;;;;;;6101557;23;20021;-83
2023/01/09 13:12:30;;;;;;;32.70;20.08;;;;;;;;;;6101310;23;20021;-83
2023/01/09 13:14:56;;;;;;;40.72;25.30;;;;;;;;;;6101110;23;20026;-83
2023/01/09 13:17:29;;;;;;;34.38;22.13;;;;;;;;;;6100987;23;20006;-83
2023/01/09 13:19:55;;;;;;;33.25;21.00;;;;;;;;;;6100549;23;20041;-82
2023/01/09 13:22:23;;;;;;;33.45;21.85;;;;;;;;;;6100775;23;20085;-82
2023/01/09 13:25:16;;;;;;;31.17;20.27;;;;;;;;;;6101025;23;20003;-83
2023/01/09 13:27:45;;;;;;;31.67;19.35;;;;;;;;;;6014868;23;20000;-83
2023/01/09 13:30:11;;;;;;;33.72;17.90;;;;;;;;;;6081470;23;20082;-82
2023/01/09 13:32:49;;;;;;;34.88;20.48;;;;;;;;;;6100713;23;20095;-82
2023/01/09 13:35:15;;;;;;;34.75;19.40;;;;;;;;;;6100521;23;20003;-83
2023/01/09 13:37:42;;;;;;;40.90;23.67;;;;;;;;;;6099806;23;20038;-82
2023/01/09 13:40:16;;;;;;;33.38;22.30;;;;;;;;;;6099928;23;20045;-82
2023/01/09 13:42:46;;;;;;;34.65;20.33;;;;;;;;;;6129398;23;20026;-82
2023/01/09 13:45:12;;;;;;;30.23;18.90;;;;;;;;;;6130048;23;20006;-83
2023/01/09 13:47:38;;;;;;;38.60;22.63;;;;;;;;;;6130092;23;20017;-83
2023/01/09 13:50:09;;;;;;;32.40;20.92;;;;;;;;;;6105392;23;20010;-82
2023/01/09 13:52:39;;;;;;;29.95;18.52;;;;;;;;;;6105234;23;20097;-82
2023/01/09 13:55:14;;;;;;;31.13;20.23;;;;;;;;;;6104995;23;20377;-78
2023/01/09 13:58:04;;;;;;;29.08;18.08;;;;;;;;;;6129773;23;20329;-82
2023/01/09 14:00:30;;;;;;;24.75;17.10;;;;;;;;;;6122091;23;20009;-81
2023/01/09 14:02:57;;;;;;;31.60;17.92;;;;;;;;;;6129713;23;20002;-83
2023/01/09 14:05:23;;;;;;;26.95;17.45;;;;;;;;;;6211111;23;20003;-83
2023/01/09 14:07:51;;;;;;;26.85;17.00;;;;;;;;;;6221712;23;20072;-81
2023/01/09 14:10:28;;;;;;;23.33;16.05;;;;;;;;;;6221084;23;20028;-82
2023/01/09 14:12:56;;;;;;;25.17;15.82;;;;;;;;;;6219444;23;20032;-82
2023/01/09 14:15:33;;;;;;;38.95;18.70;;;;;;;;;;6219871;23;20016;-81
2023/01/09 14:18:01;;;;;;;114.60;33.00;;;;;;;;;;6221155;23;20004;-81
2023/01/09 14:20:37;;;;;;;33.42;17.55;;;;;;;;;;6220956;23;20030;-82
2023/01/09 14:23:04;;;;;;;25.73;15.90;;;;;;;;;;6221421;23;20000;-82
2023/01/09 14:25:31;;;;;;;31.75;18.52;;;;;;;;;;6221305;23;20001;-82
2023/01/09 14:27:57;;;;;;;38.40;22.75;;;;;;;;;;6219802;23;20120;-82
2023/01/09 14:30:27;;;;;;;28.25;18.40;;;;;;;;;;6219736;23;20005;-82
2023/01/09 14:32:57;;;;;;;28.50;17.45;;;;;;;;;;6221231;23;20005;-82
2023/01/09 14:35:29;;;;;;;28.77;18.33;;;;;;;;;;6221325;23;20021;-82
2023/01/09 14:38:18;;;;;;;25.90;17.02;;;;;;;;;;6221030;23;20000;-82
2023/01/09 14:40:47;;;;;;;26.67;16.63;;;;;;;;;;6158683;23;20021;-82
2023/01/09 14:43:42;;;;;;;25.70;16.67;;;;;;;;;;6159228;23;20017;-82
2023/01/09 14:46:15;;;;;;;29.52;17.10;;;;;;;;;;6100254;23;20037;-82
2023/01/09 14:48:58;;;;;;;24.70;15.98;;;;;;;;;;6100214;23;20382;-83
2023/01/09 14:51:26;;;;;;;36.33;19.45;;;;;;;;;;6099845;23;20069;-82
2023/01/09 14:53:53;;;;;;;39.92;22.77;;;;;;;;;;6100143;23;20006;-82
2023/01/09 14:56:29;;;;;;;38.53;21.50;;;;;;;;;;6100090;23;20050;-82
2023/01/09 14:59:05;;;;;;;45.85;22.58;;;;;;;;;;6099802;23;20010;-82
2023/01/09 15:01:33;;;;;;;51.25;24.05;;;;;;;;;;6099977;23;20006;-82
2023/01/09 15:04:01;;;;;;;40.80;21.88;;;;;;;;;;6099798;23;20445;-80
2023/01/09 15:06:29;;;;;;;45.83;22.63;;;;;;;;;;6100285;23;20002;-81
2023/01/09 15:09:02;;;;;;;51.58;24.63;;;;;;;;;;6099757;23;20010;-83
2023/01/09 15:11:28;;;;;;;;;;;;;;;;;;6100608;23;20266;-82
2023/01/09 15:13:56;;;;;;;38.90;21.25;;;;;;;;;;6099862;23;19901;-81
2023/01/09 15:16:23;;;;;;;104.78;40.90;;;;;;;;;;6099907;23;20012;-82
2023/01/09 15:18:51;;;;;;;140.25;49.65;;;;;;;;;;6157100;23;20024;-81
2023/01/09 15:21:19;;;;;;;167.75;55.25;;;;;;;;;;6159248;23;20068;-81
2023/01/09 15:23:45;;;;;;;104.15;40.20;;;;;;;;;;6224176;23;20031;-81
2023/01/09 15:26:32;;;;;;;58.75;27.42;;;;;;;;;;6224378;23;20004;-82
2023/01/09 15:29:02;;;;;;;50.13;26.70;;;;;;;;;;6251253;23;20229;-82
2023/01/09 15:31:28;;;;;;;36.30;19.92;;;;;;;;;;6251236;23;20004;-81
2023/01/09 15:33:55;;;;;;;41.13;22.20;;;;;;;;;;6224156;23;20015;-82
2023/01/09 15:36:26;;;;;;;44.90;22.17;;;;;;;;;;6224186;23;20004;-82
2023/01/09 15:38:53;;;;;;;42.33;21.80;;;;;;;;;;6251092;23;20008;-81
2023/01/09 15:44:14;;;;;;;38.95;21.35;;;;;;;;;;6220592;23;20015;-81
2023/01/09 15:46:40;;;;;;;46.00;23.73;;;;;;;;;;6194125;23;20040;-82